createdAt,value
2018-04-18T00:01:59.568Z,28.30
2018-04-18T00:04:25.605Z,26.80
2018-04-18T00:06:51.510Z,27.47
2018-04-18T00:09:17.500Z,32.87
2018-04-18T00:11:44.197Z,31.63
2018-04-18T00:14:10.196Z,27.67
2018-04-18T00:16:36.932Z,30.83
2018-04-18T00:19:02.904Z,28.80
2018-04-18T00:21:28.921Z,27.70
2018-04-18T00:23:54.904Z,33.53
2018-04-18T00:26:20.870Z,34.80
2018-04-18T00:28:46.914Z,30.17
2018-04-18T00:31:13.629Z,28.80
2018-04-18T00:33:39.627Z,27.20
2018-04-18T00:36:05.583Z,27.83
2018-04-18T00:38:31.591Z,32.23
2018-04-18T00:40:58.403Z,33.87
2018-04-18T00:43:24.377Z,28.70
2018-04-18T00:45:51.107Z,29.57
2018-04-18T00:48:17.151Z,30.10
2018-04-18T00:50:43.127Z,30.20
2018-04-18T00:53:09.084Z,29.40
2018-04-18T00:55:35.102Z,29.07
2018-04-18T00:58:01.148Z,36.83
2018-04-18T01:00:27.112Z,27.90
2018-04-18T01:02:53.087Z,28.67
2018-04-18T01:05:19.802Z,28.20
2018-04-18T01:07:45.909Z,28.57
2018-04-18T01:10:11.868Z,25.43
2018-04-18T01:12:37.843Z,28.40
2018-04-18T01:15:04.583Z,33.87
2018-04-18T01:17:30.592Z,30.83
2018-04-18T01:19:57.076Z,29.80
2018-04-18T01:22:23.320Z,31.60
2018-04-18T01:24:49.307Z,31.17
2018-04-18T01:27:15.271Z,27.47
2018-04-18T01:29:42.015Z,27.43
2018-04-18T01:32:07.987Z,29.70
2018-04-18T01:34:33.943Z,25.93
2018-04-18T01:37:00.707Z,31.50
2018-04-18T01:39:26.678Z,25.97
2018-04-18T01:41:52.635Z,28.00
2018-04-18T01:44:18.661Z,27.67
2018-04-18T01:46:44.615Z,26.27
2018-04-18T01:49:21.751Z,27.80
2018-04-18T01:51:47.741Z,31.27
2018-04-18T01:54:13.728Z,25.57
2018-04-18T01:56:39.688Z,30.00
2018-04-18T01:59:05.711Z,33.93
2018-04-18T02:01:31.724Z,34.17
2018-04-18T02:03:57.692Z,32.83
2018-04-18T02:06:23.695Z,25.90
2018-04-18T02:08:50.455Z,35.30
2018-04-18T02:11:16.491Z,33.90
2018-04-18T02:13:42.471Z,30.83
2018-04-18T02:16:08.423Z,30.03
2018-04-18T02:18:34.414Z,32.00
2018-04-18T02:21:00.406Z,32.67
2018-04-18T02:23:26.404Z,25.60
2018-04-18T02:25:52.356Z,27.67
2018-04-18T02:28:18.388Z,27.47
2018-04-18T02:30:44.351Z,27.87
2018-04-18T02:33:10.315Z,28.67
2018-04-18T02:35:36.309Z,29.90
2018-04-18T02:38:02.325Z,25.03
2018-04-18T02:40:28.283Z,29.43
2018-04-18T02:42:54.269Z,26.17
2018-04-18T02:45:20.218Z,24.87
2018-04-18T02:47:46.243Z,29.47
2018-04-18T02:50:12.215Z,31.50
2018-04-18T02:52:38.203Z,29.80
2018-04-18T02:55:04.943Z,23.10
2018-04-18T02:57:31.689Z,23.40
2018-04-18T02:59:58.451Z,25.23
2018-04-18T03:02:25.143Z,23.47
2018-04-18T03:04:51.124Z,30.67
2018-04-18T03:07:17.168Z,27.67
2018-04-18T03:09:43.916Z,24.83
2018-04-18T03:12:09.907Z,23.17
2018-04-18T03:14:35.923Z,25.87
2018-04-18T03:17:01.902Z,25.80
2018-04-18T03:19:27.899Z,25.87
2018-04-18T03:21:53.855Z,25.67
2018-04-18T03:24:19.810Z,22.93
2018-04-18T03:26:45.808Z,20.30
2018-04-18T03:29:11.799Z,23.27
2018-04-18T03:31:37.784Z,23.20
2018-04-18T03:34:03.744Z,23.43
2018-04-18T03:36:29.761Z,24.67
2018-04-18T03:38:55.728Z,25.93
2018-04-18T03:41:21.710Z,22.60
2018-04-18T03:43:48.411Z,27.33
2018-04-18T03:46:14.400Z,22.03
2018-04-18T03:48:40.347Z,26.77
2018-04-18T03:51:06.335Z,25.57
2018-04-18T03:53:32.355Z,24.60
2018-04-18T03:55:58.363Z,24.00
2018-04-18T03:58:24.319Z,25.80
2018-04-18T04:00:50.324Z,24.17
2018-04-18T04:03:16.318Z,23.17
2018-04-18T04:05:42.276Z,23.37
2018-04-18T04:08:09.015Z,26.83
2018-04-18T04:10:35.014Z,24.43
2018-04-18T04:13:01.051Z,25.57
2018-04-18T04:15:27.080Z,30.57
2018-04-18T04:18:05.552Z,39.50
2018-04-18T04:20:44.094Z,40.20
2018-04-18T04:23:22.431Z,62.27
2018-04-18T04:25:49.161Z,82.23
2018-04-18T04:28:15.110Z,77.00
2018-04-18T04:30:41.087Z,53.87
2018-04-18T04:33:07.079Z,48.13
2018-04-18T04:35:33.083Z,43.83
2018-04-18T04:37:59.088Z,40.90
2018-04-18T04:40:25.096Z,34.40
2018-04-18T04:42:51.791Z,25.10
2018-04-18T04:45:17.775Z,22.03
2018-04-18T04:47:43.821Z,26.80
2018-04-18T04:50:09.731Z,26.63
2018-04-18T04:52:35.768Z,22.37
2018-04-18T04:55:01.729Z,30.13
2018-04-18T04:57:28.846Z,25.90
2018-04-18T04:59:54.827Z,25.47
2018-04-18T05:02:21.570Z,27.93
2018-04-18T05:04:47.532Z,30.97
2018-04-18T05:07:14.232Z,26.30
2018-04-18T05:09:40.215Z,24.93
2018-04-18T05:12:06.949Z,24.07
2018-04-18T05:14:32.959Z,28.47
2018-04-18T05:16:58.987Z,31.47
2018-04-18T05:19:24.941Z,25.23
2018-04-18T05:21:50.927Z,28.93
2018-04-18T05:24:16.910Z,29.10
2018-04-18T05:26:42.905Z,29.07
2018-04-18T05:29:08.862Z,33.87
2018-04-18T05:31:34.814Z,28.80
2018-04-18T05:34:00.814Z,32.70
2018-04-18T05:36:26.766Z,27.40
2018-04-18T05:38:52.760Z,26.23
2018-04-18T05:41:19.454Z,25.20
2018-04-18T05:43:45.456Z,31.67
2018-04-18T05:46:12.192Z,30.97
2018-04-18T05:48:38.186Z,30.93
2018-04-18T05:51:04.196Z,29.07
2018-04-18T05:53:30.160Z,27.33
2018-04-18T05:55:56.111Z,28.80
2018-04-18T05:58:22.159Z,24.63
2018-04-18T06:00:48.131Z,27.07
2018-04-18T06:03:14.851Z,32.80
2018-04-18T06:05:40.802Z,28.27
2018-04-18T06:08:06.803Z,27.80
2018-04-18T06:10:32.759Z,31.93
2018-04-18T06:12:58.756Z,30.40
2018-04-18T06:15:25.440Z,29.23
2018-04-18T06:17:51.444Z,29.20
2018-04-18T06:20:17.414Z,37.27
2018-04-18T06:22:43.402Z,30.10
2018-04-18T06:25:09.355Z,27.67
2018-04-18T06:27:35.363Z,31.40
2018-04-18T06:30:02.077Z,30.90
2018-04-18T06:32:28.077Z,35.33
2018-04-18T06:34:54.049Z,30.40
2018-04-18T06:37:20.036Z,33.60
2018-04-18T06:39:46.003Z,31.50
2018-04-18T06:42:11.986Z,29.90
2018-04-18T06:44:38.676Z,31.07
2018-04-18T06:47:04.651Z,31.63
2018-04-18T06:49:30.655Z,33.20
2018-04-18T06:51:56.607Z,27.60
2018-04-18T06:54:22.572Z,27.10
2018-04-18T06:56:48.552Z,28.17
2018-04-18T06:59:14.506Z,28.30
2018-04-18T07:01:40.503Z,27.20
2018-04-18T07:04:06.451Z,32.90
2018-04-18T07:06:32.484Z,28.13
2018-04-18T07:08:58.460Z,29.53
2018-04-18T07:11:25.193Z,28.63
2018-04-18T07:13:51.206Z,27.90
2018-04-18T07:16:17.237Z,30.40
2018-04-18T07:18:43.190Z,30.10
2018-04-18T07:21:09.208Z,24.87
2018-04-18T07:23:35.936Z,29.73
2018-04-18T07:26:01.908Z,24.50
2018-04-18T07:28:27.912Z,27.63
2018-04-18T07:30:53.863Z,28.30
2018-04-18T07:33:20.563Z,24.27
2018-04-18T07:35:46.556Z,30.07
2018-04-18T07:38:13.250Z,26.60
2018-04-18T07:40:39.255Z,26.70
2018-04-18T07:43:05.198Z,26.13
2018-04-18T07:45:31.227Z,26.90
2018-04-18T07:47:57.185Z,25.73
2018-04-18T07:50:23.183Z,21.43
2018-04-18T07:52:49.885Z,26.33
2018-04-18T07:55:15.847Z,21.83
2018-04-18T07:57:41.847Z,23.03
2018-04-18T08:00:07.802Z,24.60
2018-04-18T08:02:33.778Z,23.07
2018-04-18T08:05:00.515Z,20.93
2018-04-18T08:07:26.479Z,20.67
2018-04-18T08:09:53.232Z,21.90
2018-04-18T08:12:19.220Z,23.67
2018-04-18T08:14:45.209Z,21.83
2018-04-18T08:17:11.211Z,21.40
2018-04-18T08:19:37.171Z,20.17
2018-04-18T08:22:03.909Z,20.57
2018-04-18T08:24:29.897Z,18.80
2018-04-18T08:26:55.891Z,19.33
2018-04-18T08:29:22.587Z,18.67
2018-04-18T08:31:48.567Z,17.53
2018-04-18T08:34:14.543Z,17.10
2018-04-18T08:36:40.544Z,19.63
2018-04-18T08:39:06.509Z,18.17
2018-04-18T08:41:33.286Z,21.27
2018-04-18T08:43:59.270Z,18.00
2018-04-18T08:46:25.979Z,18.23
2018-04-18T08:48:51.990Z,18.17
2018-04-18T08:51:17.952Z,17.57
2018-04-18T08:53:43.902Z,17.17
2018-04-18T08:56:09.872Z,19.00
2018-04-18T08:58:35.849Z,20.37
2018-04-18T09:01:01.843Z,18.10
2018-04-18T09:03:28.599Z,18.90
2018-04-18T09:05:55.307Z,14.33
2018-04-18T09:08:21.255Z,14.07
2018-04-18T09:10:47.235Z,18.70
2018-04-18T09:13:13.959Z,14.13
2018-04-18T09:15:39.937Z,15.63
2018-04-18T09:18:05.935Z,16.63
2018-04-18T09:20:31.931Z,15.27
2018-04-18T09:22:57.883Z,15.67
2018-04-18T09:25:23.836Z,14.93
2018-04-18T09:27:49.807Z,13.70
2018-04-18T09:30:15.833Z,11.63
2018-04-18T09:32:42.559Z,13.50
2018-04-18T09:35:08.519Z,19.73
2018-04-18T09:37:35.256Z,9.77
2018-04-18T09:40:01.298Z,11.10
2018-04-18T09:42:28.016Z,9.63
2018-04-18T09:44:53.991Z,10.27
2018-04-18T09:47:20.693Z,13.70
2018-04-18T09:49:46.697Z,9.93
2018-04-18T09:52:13.389Z,10.23
2018-04-18T09:54:39.380Z,13.67
2018-04-18T09:57:06.104Z,13.23
2018-04-18T09:59:32.066Z,12.20
2018-04-18T10:02:05.080Z,14.17
2018-04-18T10:04:31.799Z,10.53
2018-04-18T10:06:57.794Z,10.73
2018-04-18T10:09:23.743Z,12.33
2018-04-18T10:11:49.710Z,10.50
2018-04-18T10:14:15.719Z,12.10
2018-04-18T10:16:42.423Z,10.90
2018-04-18T10:19:09.163Z,13.47
2018-04-18T10:21:35.124Z,11.10
2018-04-18T10:24:01.113Z,12.53
2018-04-18T10:26:27.099Z,15.40
2018-04-18T10:28:53.079Z,14.47
2018-04-18T10:31:19.068Z,13.03
2018-04-18T10:33:45.023Z,10.00
2018-04-18T10:36:11.007Z,10.83
2018-04-18T10:38:37.015Z,15.03
2018-04-18T10:41:03.011Z,13.90
2018-04-18T10:43:29.211Z,12.37
2018-04-18T10:45:55.196Z,12.13
2018-04-18T10:48:21.183Z,13.60
2018-04-18T10:50:47.215Z,11.40
2018-04-18T10:53:13.175Z,14.53
2018-04-18T10:55:39.203Z,11.60
2018-04-18T10:58:05.168Z,13.87
2018-04-18T11:00:31.944Z,13.03
2018-04-18T11:02:57.931Z,11.90
2018-04-18T11:05:23.883Z,12.87
2018-04-18T11:07:50.616Z,10.33
2018-04-18T11:10:16.583Z,11.93
2018-04-18T11:12:42.612Z,14.27
2018-04-18T11:15:09.311Z,9.60
2018-04-18T11:17:35.325Z,16.50
2018-04-18T11:20:01.301Z,11.63
2018-04-18T11:22:27.265Z,10.07
2018-04-18T11:24:54.008Z,13.70
2018-04-18T11:27:20.799Z,9.07
2018-04-18T11:29:46.769Z,14.23
2018-04-18T11:32:12.759Z,13.43
2018-04-18T11:34:38.715Z,14.60
2018-04-18T11:37:04.761Z,10.80
2018-04-18T11:39:30.819Z,11.83
2018-04-18T11:41:56.784Z,13.53
2018-04-18T11:44:22.732Z,12.03
2018-04-18T11:46:49.447Z,12.10
2018-04-18T11:49:15.407Z,13.63
2018-04-18T11:51:41.383Z,10.73
2018-04-18T11:54:07.339Z,13.33
2018-04-18T11:56:33.363Z,11.57
2018-04-18T11:58:59.357Z,12.50
2018-04-18T12:01:25.304Z,10.27
2018-04-18T12:03:52.031Z,10.27
2018-04-18T12:06:17.979Z,14.57
2018-04-18T12:08:43.964Z,12.73
2018-04-18T12:11:09.920Z,10.90
2018-04-18T12:13:35.910Z,13.40
2018-04-18T12:16:01.912Z,12.33
2018-04-18T12:18:27.864Z,12.27
2018-04-18T12:20:54.603Z,13.37
2018-04-18T12:23:20.583Z,14.67
2018-04-18T12:25:46.550Z,10.83
2018-04-18T12:28:12.807Z,11.97
2018-04-18T12:30:38.834Z,10.80
2018-04-18T12:33:04.765Z,8.60
2018-04-18T12:35:30.766Z,10.43
2018-04-18T12:37:56.764Z,11.77
2018-04-18T12:40:22.723Z,13.30
2018-04-18T12:42:49.421Z,13.53
2018-04-18T12:45:15.415Z,11.90
2018-04-18T12:47:41.391Z,13.13
2018-04-18T12:50:07.375Z,13.70
2018-04-18T12:52:34.114Z,14.27
2018-04-18T12:55:00.166Z,14.10
2018-04-18T12:57:26.875Z,15.40
2018-04-18T12:59:52.859Z,16.97
2018-04-18T13:02:19.550Z,14.17
2018-04-18T13:04:45.491Z,15.70
2018-04-18T13:07:11.475Z,14.80
2018-04-18T13:09:39.144Z,15.30
2018-04-18T13:12:05.889Z,15.07
2018-04-18T13:14:31.891Z,15.77
2018-04-18T13:16:57.889Z,15.03
2018-04-18T13:19:23.864Z,15.80
2018-04-18T13:21:49.827Z,16.57
2018-04-18T13:24:15.843Z,14.00
2018-04-18T13:26:41.819Z,16.40
2018-04-18T13:29:08.519Z,17.83
2018-04-18T13:31:34.702Z,18.60
2018-04-18T13:34:00.712Z,17.33
2018-04-18T13:36:26.682Z,17.73
2018-04-18T13:38:52.675Z,19.47
2018-04-18T13:41:18.627Z,19.03
2018-04-18T13:43:44.626Z,18.70
2018-04-18T13:46:10.587Z,21.40
2018-04-18T13:48:36.559Z,19.17
2018-04-18T13:51:02.615Z,19.80
2018-04-18T13:53:29.335Z,19.47
2018-04-18T13:55:55.620Z,16.60
2018-04-18T13:58:22.315Z,17.23
2018-04-18T14:00:48.267Z,19.20
2018-04-18T14:03:14.244Z,18.03
2018-04-18T14:05:40.934Z,17.00
2018-04-18T14:08:06.911Z,13.50
2018-04-18T14:10:32.926Z,12.17
2018-04-18T14:12:58.886Z,13.40
2018-04-18T14:15:24.831Z,12.87
2018-04-18T14:17:51.604Z,13.87
2018-04-18T14:20:17.658Z,14.20
2018-04-18T14:22:43.651Z,14.23
2018-04-18T14:25:10.344Z,14.40
2018-04-18T14:27:36.328Z,14.07
2018-04-18T14:30:02.300Z,12.87
2018-04-18T14:32:28.299Z,13.33
2018-04-18T14:34:54.255Z,15.50
2018-04-18T14:37:20.983Z,14.37
2018-04-18T14:39:46.939Z,14.07
2018-04-18T14:42:13.651Z,15.73
2018-04-18T14:44:39.648Z,15.37
2018-04-18T14:47:05.607Z,13.27
2018-04-18T14:49:31.623Z,13.80
2018-04-18T14:51:57.588Z,11.60
2018-04-18T14:54:23.553Z,13.57
2018-04-18T14:56:49.564Z,12.97
2018-04-18T14:59:15.563Z,12.17
2018-04-18T15:01:41.515Z,11.63
2018-04-18T15:04:07.503Z,12.97
2018-04-18T15:06:33.497Z,10.60
2018-04-18T15:08:59.523Z,9.93
2018-04-18T15:11:25.487Z,12.80
2018-04-18T15:13:51.470Z,9.53
2018-04-18T15:16:18.223Z,11.13
2018-04-18T15:18:44.987Z,9.67
2018-04-18T15:21:10.938Z,10.20
2018-04-18T15:23:36.907Z,7.83
2018-04-18T15:26:02.896Z,9.67
2018-04-18T15:28:30.710Z,8.43
2018-04-18T15:30:56.628Z,7.60
2018-04-18T15:33:22.607Z,8.30
2018-04-18T15:35:48.582Z,8.67
2018-04-18T15:38:14.568Z,7.77
2018-04-18T15:40:40.521Z,8.23
2018-04-18T15:43:06.496Z,11.53
2018-04-18T15:45:32.502Z,8.10
2018-04-18T15:47:58.540Z,8.93
2018-04-18T15:50:25.283Z,10.20
2018-04-18T15:52:51.242Z,8.73
2018-04-18T15:55:17.272Z,8.83
2018-04-18T15:57:43.998Z,10.43
2018-04-18T16:00:09.967Z,9.60
2018-04-18T16:02:36.671Z,8.73
2018-04-18T16:05:02.684Z,10.13
2018-04-18T16:07:28.785Z,10.70
2018-04-18T16:09:54.731Z,10.70
2018-04-18T16:12:21.426Z,11.20
2018-04-18T16:14:47.424Z,13.07
2018-04-18T16:17:14.143Z,12.10
2018-04-18T16:19:40.130Z,14.10
2018-04-18T16:22:06.123Z,16.50
2018-04-18T16:24:33.556Z,11.70
2018-04-18T16:27:00.315Z,12.13
2018-04-18T16:29:38.503Z,10.17
2018-04-18T16:32:04.487Z,12.80
2018-04-18T16:34:30.523Z,13.10
2018-04-18T16:36:56.504Z,12.10
2018-04-18T16:39:23.220Z,14.50
2018-04-18T16:41:49.208Z,13.07
2018-04-18T16:44:15.270Z,12.17
2018-04-18T16:46:41.228Z,16.60
2018-04-18T16:49:07.170Z,13.03
2018-04-18T16:51:33.259Z,12.20
2018-04-18T16:53:59.230Z,12.50
2018-04-18T16:56:25.215Z,11.63
2018-04-18T16:58:51.911Z,13.50
2018-04-18T17:01:17.864Z,10.70
2018-04-18T17:03:43.849Z,14.63
2018-04-18T17:06:09.804Z,11.13
2018-04-18T17:08:35.792Z,13.90
2018-04-18T17:11:01.763Z,10.43
2018-04-18T17:13:27.764Z,12.00
2018-04-18T17:15:54.457Z,10.13
2018-04-18T17:18:20.439Z,11.70
2018-04-18T17:20:46.444Z,12.13
2018-04-18T17:23:12.403Z,13.93
2018-04-18T17:25:38.420Z,9.50
2018-04-18T17:28:04.371Z,12.10
2018-04-18T17:30:30.385Z,17.30
2018-04-18T17:32:56.347Z,11.33
2018-04-18T17:35:22.339Z,12.23
2018-04-18T17:37:48.315Z,11.93
2018-04-18T17:40:14.312Z,12.53
2018-04-18T17:42:40.255Z,10.93
2018-04-18T17:45:06.248Z,12.27
2018-04-18T17:47:33.758Z,10.80
2018-04-18T17:49:59.742Z,11.00
2018-04-18T17:52:25.703Z,14.30
2018-04-18T17:54:52.454Z,9.40
2018-04-18T17:57:19.160Z,12.53
2018-04-18T17:59:45.278Z,9.83
2018-04-18T18:02:11.274Z,10.73
2018-04-18T18:04:37.215Z,16.60
2018-04-18T18:07:03.989Z,13.93
2018-04-18T18:09:29.979Z,14.73
2018-04-18T18:11:55.955Z,11.13
2018-04-18T18:14:22.644Z,11.83
2018-04-18T18:16:48.640Z,11.57
2018-04-18T18:19:15.524Z,10.10
2018-04-18T18:21:41.507Z,10.37
2018-04-18T18:24:07.487Z,10.47
2018-04-18T18:26:33.477Z,10.20
2018-04-18T18:28:59.496Z,9.20
2018-04-18T18:31:25.477Z,8.97
2018-04-18T18:33:52.172Z,8.73
2018-04-18T18:36:18.169Z,10.30
2018-04-18T18:38:44.863Z,9.47
2018-04-18T18:41:10.843Z,9.90
2018-04-18T18:43:36.824Z,10.27
2018-04-18T18:46:02.790Z,10.50
2018-04-18T18:48:28.747Z,10.00
2018-04-18T18:50:54.744Z,10.73
2018-04-18T18:53:20.708Z,11.17
2018-04-18T18:55:46.682Z,10.00
2018-04-18T18:58:12.655Z,13.67
2018-04-18T19:00:38.660Z,11.40
2018-04-18T19:03:04.643Z,11.77
2018-04-18T19:05:30.613Z,12.27
2018-04-18T19:07:56.583Z,12.87
2018-04-18T19:10:22.522Z,11.50
2018-04-18T19:12:48.514Z,11.20
2018-04-18T19:15:15.228Z,13.73
2018-04-18T19:17:41.171Z,11.67
2018-04-18T19:20:07.155Z,12.20
2018-04-18T19:22:33.148Z,12.00
2018-04-18T19:24:59.930Z,13.60
2018-04-18T19:27:26.619Z,13.27
2018-04-18T19:29:52.559Z,16.20
2018-04-18T19:32:18.550Z,14.43
2018-04-18T19:34:44.495Z,12.37
2018-04-18T19:37:11.207Z,11.27
2018-04-18T19:39:37.159Z,10.93
2018-04-18T19:42:03.151Z,12.53
2018-04-18T19:44:29.163Z,13.47
2018-04-18T19:46:55.886Z,14.10
2018-04-18T19:49:21.835Z,13.93
2018-04-18T19:51:47.787Z,12.87
2018-04-18T19:54:14.503Z,12.93
2018-04-18T19:56:40.452Z,14.00
2018-04-18T19:59:06.437Z,12.90
2018-04-18T20:01:33.935Z,12.33
2018-04-18T20:03:59.960Z,13.30
2018-04-18T20:06:25.906Z,15.73
2018-04-18T20:08:52.600Z,18.87
2018-04-18T20:11:19.335Z,17.97
2018-04-18T20:13:45.288Z,20.17
2018-04-18T20:16:11.983Z,19.93
2018-04-18T20:18:37.959Z,20.27
2018-04-18T20:21:03.932Z,21.10
2018-04-18T20:23:29.956Z,18.37
2018-04-18T20:25:55.919Z,19.73
2018-04-18T20:28:21.921Z,21.53
2018-04-18T20:30:48.627Z,23.07
2018-04-18T20:33:14.611Z,22.30
2018-04-18T20:35:41.324Z,22.77
2018-04-18T20:38:07.362Z,22.63
2018-04-18T20:40:33.329Z,23.93
2018-04-18T20:42:59.328Z,21.40
2018-04-18T20:45:25.272Z,23.83
2018-04-18T20:47:51.219Z,21.53
2018-04-18T20:50:17.212Z,20.83
2018-04-18T20:52:43.163Z,19.63
2018-04-18T20:55:09.135Z,20.40
2018-04-18T20:57:35.072Z,21.13
2018-04-18T21:00:01.076Z,20.80
2018-04-18T21:02:27.056Z,20.83
2018-04-18T21:04:53.740Z,19.17
2018-04-18T21:07:19.718Z,20.43
2018-04-18T21:09:45.679Z,22.83
2018-04-18T21:12:11.659Z,23.30
2018-04-18T21:14:37.630Z,21.73
2018-04-18T21:17:03.592Z,19.30
2018-04-18T21:19:29.587Z,24.20
2018-04-18T21:21:55.527Z,18.23
2018-04-18T21:24:21.484Z,19.33
2018-04-18T21:26:47.464Z,19.33
2018-04-18T21:29:13.407Z,18.70
2018-04-18T21:31:39.411Z,18.83
2018-04-18T21:34:06.099Z,18.83
2018-04-18T21:36:32.084Z,18.53
2018-04-18T21:38:58.030Z,18.67
2018-04-18T21:41:24.756Z,20.37
2018-04-18T21:43:50.707Z,20.13
2018-04-18T21:46:16.719Z,19.20
2018-04-18T21:48:42.663Z,19.40
2018-04-18T21:51:08.607Z,18.57
2018-04-18T21:53:34.586Z,18.67
2018-04-18T21:56:00.539Z,21.03
2018-04-18T21:58:26.479Z,18.53
2018-04-18T22:00:52.447Z,20.93
2018-04-18T22:03:18.396Z,19.37
2018-04-18T22:05:44.376Z,16.47
2018-04-18T22:08:10.323Z,17.47
2018-04-18T22:10:36.262Z,17.33
2018-04-18T22:13:02.243Z,17.43
2018-04-18T22:15:28.938Z,18.43
2018-04-18T22:17:54.943Z,17.57
2018-04-18T22:20:21.632Z,21.90
2018-04-18T22:22:47.610Z,16.27
2018-04-18T22:25:13.611Z,17.13
2018-04-18T22:27:39.563Z,16.27
2018-04-18T22:30:05.535Z,18.37
2018-04-18T22:32:32.235Z,17.73
2018-04-18T22:34:58.220Z,21.30
2018-04-18T22:37:24.915Z,16.73
2018-04-18T22:39:50.864Z,18.20
2018-04-18T22:42:16.852Z,16.67
2018-04-18T22:44:42.810Z,18.67
2018-04-18T22:47:08.806Z,19.40
2018-04-18T22:49:34.751Z,21.40
2018-04-18T22:52:01.495Z,22.20
2018-04-18T22:54:27.436Z,17.20
2018-04-18T22:56:54.136Z,20.27
2018-04-18T22:59:20.126Z,17.30
2018-04-18T23:01:46.818Z,16.70
2018-04-18T23:04:12.769Z,18.07
2018-04-18T23:06:38.731Z,21.43
2018-04-18T23:09:04.679Z,16.40
2018-04-18T23:11:31.433Z,17.10
2018-04-18T23:13:58.124Z,17.33
2018-04-18T23:16:24.070Z,16.23
2018-04-18T23:18:50.059Z,17.73
2018-04-18T23:21:16.799Z,18.30
2018-04-18T23:23:42.748Z,16.70
2018-04-18T23:26:09.467Z,16.57
2018-04-18T23:28:35.419Z,16.97
2018-04-18T23:31:01.408Z,16.10
2018-04-18T23:33:27.412Z,16.90
2018-04-18T23:35:54.103Z,19.80
2018-04-18T23:38:20.047Z,19.50
2018-04-18T23:40:46.055Z,18.70
2018-04-18T23:43:12.043Z,16.73
2018-04-18T23:45:38.763Z,18.83
2018-04-18T23:48:04.707Z,16.67
2018-04-18T23:50:30.716Z,17.40
2018-04-18T23:52:56.668Z,16.83
2018-04-18T23:55:22.635Z,16.83
2018-04-18T23:57:48.579Z,17.77
